Bhakkar Weather



Bhakkar's Current Weather

Temprature 41.662o clear sky

clear sky

Rain: 0 %

Min Temprature41.662o
Max Temprature41.662o
Humidity21
Wind Speed2.06 m/h
Sun Rise05:12:11
Sun Set19:24:32
Current Time: 26-Jun-2019 15:24:35
Lat/Lon: 31.63, 71.07




Bhakkar's Geo Location



Bhakkar's Weather Forecast

Time Overall Temp Min Temp Max Temp Humidity Wind Speed Rain
26-Jun-2019 (Wed)
17:00:00 clear sky 43.050 43.050 43.050 16 1.72 m/h 0 %
20:00:00 clear sky 41.450 41.447 41.450 19 3.13 m/h 0 %
23:00:00 clear sky 39.240 39.240 39.240 23 3.33 m/h 0 %
27-Jun-2019 (Thu)
02:00:00 clear sky 37.580 37.579 37.580 24 3.76 m/h 0 %
05:00:00 clear sky 35.465 35.465 35.465 28 3.13 m/h 0 %
08:00:00 clear sky 37.750 37.750 37.750 25 2.27 m/h 0 %
11:00:00 clear sky 41.774 41.774 41.774 18 2.4 m/h 0 %
14:00:00 clear sky 44.750 44.750 44.750 12 2.58 m/h 0 %
17:00:00 clear sky 45.680 45.680 45.680 10 2.49 m/h 0 %
20:00:00 clear sky 41.794 41.794 41.794 15 5.97 m/h 0 %
23:00:00 clear sky 39.235 39.235 39.235 21 3.76 m/h 0 %
28-Jun-2019 (Fri)
02:00:00 clear sky 37.228 37.228 37.228 24 2.5 m/h 0 %
05:00:00 clear sky 35.328 35.328 35.328 25 2.36 m/h 0 %
08:00:00 clear sky 38.299 38.299 38.299 20 1.54 m/h 0 %
11:00:00 clear sky 42.925 42.925 42.925 15 2.04 m/h 0 %
14:00:00 clear sky 45.831 45.831 45.831 11 2.31 m/h 0 %
17:00:00 clear sky 46.950 46.950 46.950 8 3.61 m/h 0 %
20:00:00 clear sky 43.250 43.250 43.250 14 0.75 m/h 0 %
23:00:00 clear sky 41.372 41.372 41.372 18 5.52 m/h 0 %
29-Jun-2019 (Sat)
02:00:00 clear sky 39.872 39.872 39.872 20 8.1 m/h 0 %
05:00:00 clear sky 37.149 37.149 37.149 26 5.63 m/h 0 %
08:00:00 clear sky 39.527 39.527 39.527 25 4.88 m/h 0 %
11:00:00 clear sky 44.750 44.750 44.750 12 3.18 m/h 0 %
14:00:00 clear sky 47.350 47.350 47.350 8 2.32 m/h 0 %
17:00:00 clear sky 47.891 47.891 47.891 6 1.39 m/h 0 %
20:00:00 clear sky 44.350 44.350 44.350 11 8.29 m/h 0 %
23:00:00 clear sky 41.850 41.850 41.850 15 8.11 m/h 0 %
30-Jun-2019 (Sun)
02:00:00 clear sky 40.036 40.036 40.036 17 9.03 m/h 0 %
05:00:00 clear sky 37.782 37.782 37.782 22 7.67 m/h 0 %
08:00:00 clear sky 39.972 39.972 39.972 22 7.8 m/h 0 %
11:00:00 clear sky 45.218 45.218 45.218 13 4.95 m/h 0 %
14:00:00 clear sky 47.509 47.509 47.509 10 4.9 m/h 0 %
17:00:00 clear sky 47.750 47.750 47.750 8 3.46 m/h 0 %
20:00:00 clear sky 44.050 44.050 44.050 12 1.31 m/h 0 %
23:00:00 clear sky 42.050 42.050 42.050 17 4.52 m/h 0 %
01-Jul-2019 (Mon)
02:00:00 clear sky 40.250 40.250 40.250 19 8.76 m/h 0 %
05:00:00 clear sky 37.835 37.835 37.835 29 8.22 m/h 0 %
08:00:00 clear sky 39.450 39.450 39.450 30 7.28 m/h 0 %
11:00:00 clear sky 45.850 45.850 45.850 16 4.6 m/h 0 %
14:00:00 clear sky 48.850 48.850 48.850 10 3.58 m/h 0 %


Bhakkar's Tourist Spots

Historical Places in Bhakkar

Famous Cities (60)